sensor_id;sensor_type;location;lat;lon;timestamp;P1;durP1;ratioP1;P2;durP2;ratioP2
31786;SDS011;18356;52.380;9.820;2023-02-01T00:00:44;21.57;;;2.93;;
31786;SDS011;18356;52.380;9.820;2023-02-01T00:03:10;21.50;;;3.00;;
31786;SDS011;18356;52.380;9.820;2023-02-01T00:05:37;21.97;;;3.83;;
31786;SDS011;18356;52.380;9.820;2023-02-01T00:08:03;21.97;;;3.40;;
31786;SDS011;18356;52.380;9.820;2023-02-01T00:10:30;23.63;;;3.47;;
31786;SDS011;18356;52.380;9.820;2023-02-01T00:12:56;29.70;;;3.63;;
31786;SDS011;18356;52.380;9.820;2023-02-01T00:15:22;16.73;;;2.73;;
31786;SDS011;18356;52.380;9.820;2023-02-01T00:17:48;24.93;;;4.50;;
31786;SDS011;18356;52.380;9.820;2023-02-01T00:20:18;24.53;;;3.70;;
31786;SDS011;18356;52.380;9.820;2023-02-01T00:22:44;20.00;;;3.23;;
31786;SDS011;18356;52.380;9.820;2023-02-01T00:25:10;22.23;;;2.83;;
31786;SDS011;18356;52.380;9.820;2023-02-01T00:27:36;20.53;;;3.20;;
31786;SDS011;18356;52.380;9.820;2023-02-01T00:30:02;24.33;;;3.50;;
31786;SDS011;18356;52.380;9.820;2023-02-01T00:32:28;23.80;;;3.93;;
31786;SDS011;18356;52.380;9.820;2023-02-01T00:34:56;23.10;;;3.37;;
31786;SDS011;18356;52.380;9.820;2023-02-01T00:37:22;27.60;;;3.73;;
31786;SDS011;18356;52.380;9.820;2023-02-01T00:39:48;29.17;;;3.80;;
31786;SDS011;18356;52.380;9.820;2023-02-01T00:42:15;22.03;;;3.43;;
31786;SDS011;18356;52.380;9.820;2023-02-01T00:44:41;25.90;;;4.80;;
31786;SDS011;18356;52.380;9.820;2023-02-01T00:47:07;29.73;;;4.37;;
31786;SDS011;18356;52.380;9.820;2023-02-01T00:49:33;25.40;;;3.17;;
31786;SDS011;18356;52.380;9.820;2023-02-01T00:51:59;26.90;;;4.20;;
31786;SDS011;18356;52.380;9.820;2023-02-01T00:54:25;25.80;;;3.40;;
31786;SDS011;18356;52.380;9.820;2023-02-01T00:56:51;23.27;;;3.53;;
31786;SDS011;18356;52.380;9.820;2023-02-01T00:59:17;26.03;;;3.80;;
31786;SDS011;18356;52.380;9.820;2023-02-01T01:01:43;23.60;;;3.73;;
31786;SDS011;18356;52.380;9.820;2023-02-01T01:04:09;25.80;;;4.47;;
31786;SDS011;18356;52.380;9.820;2023-02-01T01:06:35;31.60;;;4.10;;
31786;SDS011;18356;52.380;9.820;2023-02-01T01:09:02;27.77;;;4.00;;
31786;SDS011;18356;52.380;9.820;2023-02-01T01:11:30;28.00;;;3.53;;
31786;SDS011;18356;52.380;9.820;2023-02-01T01:13:56;26.50;;;3.37;;
31786;SDS011;18356;52.380;9.820;2023-02-01T01:16:23;40.63;;;3.70;;
31786;SDS011;18356;52.380;9.820;2023-02-01T01:18:50;31.93;;;4.17;;
31786;SDS011;18356;52.380;9.820;2023-02-01T01:21:16;24.33;;;3.00;;
31786;SDS011;18356;52.380;9.820;2023-02-01T01:23:43;21.23;;;3.47;;
31786;SDS011;18356;52.380;9.820;2023-02-01T01:26:13;23.93;;;3.33;;
31786;SDS011;18356;52.380;9.820;2023-02-01T01:28:39;22.67;;;4.07;;
31786;SDS011;18356;52.380;9.820;2023-02-01T01:31:12;31.07;;;3.93;;
31786;SDS011;18356;52.380;9.820;2023-02-01T01:33:38;25.63;;;3.40;;
31786;SDS011;18356;52.380;9.820;2023-02-01T01:36:05;31.97;;;3.67;;
31786;SDS011;18356;52.380;9.820;2023-02-01T01:38:31;30.20;;;3.90;;
31786;SDS011;18356;52.380;9.820;2023-02-01T01:40:57;25.80;;;4.00;;
31786;SDS011;18356;52.380;9.820;2023-02-01T01:43:23;27.03;;;3.23;;
31786;SDS011;18356;52.380;9.820;2023-02-01T01:45:49;19.80;;;3.67;;
31786;SDS011;18356;52.380;9.820;2023-02-01T01:48:18;19.60;;;3.17;;
31786;SDS011;18356;52.380;9.820;2023-02-01T01:50:47;28.27;;;3.43;;
31786;SDS011;18356;52.380;9.820;2023-02-01T01:53:15;32.63;;;4.20;;
31786;SDS011;18356;52.380;9.820;2023-02-01T01:55:42;39.27;;;4.10;;
31786;SDS011;18356;52.380;9.820;2023-02-01T01:58:11;31.17;;;4.17;;
31786;SDS011;18356;52.380;9.820;2023-02-01T02:00:37;29.53;;;4.10;;
31786;SDS011;18356;52.380;9.820;2023-02-01T02:05:39;25.43;;;4.03;;
31786;SDS011;18356;52.380;9.820;2023-02-01T02:08:05;27.23;;;4.07;;
31786;SDS011;18356;52.380;9.820;2023-02-01T02:10:31;21.50;;;3.60;;
31786;SDS011;18356;52.380;9.820;2023-02-01T02:13:17;17.20;;;3.07;;
31786;SDS011;18356;52.380;9.820;2023-02-01T02:16:06;24.63;;;3.70;;
31786;SDS011;18356;52.380;9.820;2023-02-01T02:18:36;22.33;;;3.80;;
31786;SDS011;18356;52.380;9.820;2023-02-01T02:21:10;29.20;;;3.50;;
31786;SDS011;18356;52.380;9.820;2023-02-01T02:36:59;23.37;;;3.53;;
31786;SDS011;18356;52.380;9.820;2023-02-01T02:45:13;30.43;;;4.40;;
31786;SDS011;18356;52.380;9.820;2023-02-01T02:48:11;22.87;;;3.20;;
31786;SDS011;18356;52.380;9.820;2023-02-01T02:50:42;18.30;;;3.10;;
31786;SDS011;18356;52.380;9.820;2023-02-01T02:56:39;20.13;;;3.07;;
31786;SDS011;18356;52.380;9.820;2023-02-01T02:59:24;19.87;;;3.00;;
31786;SDS011;18356;52.380;9.820;2023-02-01T03:02:10;20.30;;;3.23;;
31786;SDS011;18356;52.380;9.820;2023-02-01T03:04:55;20.63;;;3.23;;
31786;SDS011;18356;52.380;9.820;2023-02-01T03:10:16;23.03;;;3.60;;
31786;SDS011;18356;52.380;9.820;2023-02-01T03:12:44;21.33;;;3.53;;
31786;SDS011;18356;52.380;9.820;2023-02-01T03:15:33;24.03;;;3.50;;
31786;SDS011;18356;52.380;9.820;2023-02-01T03:18:02;26.43;;;3.70;;
31786;SDS011;18356;52.380;9.820;2023-02-01T03:20:30;16.63;;;3.50;;
31786;SDS011;18356;52.380;9.820;2023-02-01T03:22:57;22.23;;;3.13;;
31786;SDS011;18356;52.380;9.820;2023-02-01T03:25:28;27.50;;;3.80;;
31786;SDS011;18356;52.380;9.820;2023-02-01T03:27:59;23.40;;;3.67;;
31786;SDS011;18356;52.380;9.820;2023-02-01T03:30:27;22.83;;;3.20;;
31786;SDS011;18356;52.380;9.820;2023-02-01T03:32:55;26.67;;;3.80;;
31786;SDS011;18356;52.380;9.820;2023-02-01T03:35:25;21.77;;;2.83;;
31786;SDS011;18356;52.380;9.820;2023-02-01T03:37:54;29.47;;;4.17;;
31786;SDS011;18356;52.380;9.820;2023-02-01T03:40:22;25.57;;;4.23;;
31786;SDS011;18356;52.380;9.820;2023-02-01T03:42:49;25.03;;;3.50;;
31786;SDS011;18356;52.380;9.820;2023-02-01T03:45:27;25.97;;;3.63;;
31786;SDS011;18356;52.380;9.820;2023-02-01T03:47:56;20.97;;;3.30;;
31786;SDS011;18356;52.380;9.820;2023-02-01T03:50:22;25.00;;;2.80;;
31786;SDS011;18356;52.380;9.820;2023-02-01T03:53:09;22.43;;;4.07;;
31786;SDS011;18356;52.380;9.820;2023-02-01T03:55:36;21.03;;;3.37;;
31786;SDS011;18356;52.380;9.820;2023-02-01T03:58:04;28.73;;;3.97;;
31786;SDS011;18356;52.380;9.820;2023-02-01T04:00:32;23.93;;;3.77;;
31786;SDS011;18356;52.380;9.820;2023-02-01T04:02:58;18.53;;;3.17;;
31786;SDS011;18356;52.380;9.820;2023-02-01T04:05:24;29.13;;;4.00;;
31786;SDS011;18356;52.380;9.820;2023-02-01T04:07:50;22.43;;;3.47;;
31786;SDS011;18356;52.380;9.820;2023-02-01T04:10:16;28.20;;;3.80;;
31786;SDS011;18356;52.380;9.820;2023-02-01T04:12:42;26.67;;;4.10;;
31786;SDS011;18356;52.380;9.820;2023-02-01T04:15:08;23.27;;;3.57;;
31786;SDS011;18356;52.380;9.820;2023-02-01T04:17:34;26.33;;;4.80;;
31786;SDS011;18356;52.380;9.820;2023-02-01T04:20:00;19.70;;;3.93;;
31786;SDS011;18356;52.380;9.820;2023-02-01T04:22:26;24.37;;;3.90;;
31786;SDS011;18356;52.380;9.820;2023-02-01T04:24:53;29.60;;;4.43;;
31786;SDS011;18356;52.380;9.820;2023-02-01T04:27:19;23.70;;;3.60;;
31786;SDS011;18356;52.380;9.820;2023-02-01T04:29:45;24.93;;;4.23;;
31786;SDS011;18356;52.380;9.820;2023-02-01T04:32:11;22.07;;;3.97;;
31786;SDS011;18356;52.380;9.820;2023-02-01T04:34:37;27.37;;;4.33;;
31786;SDS011;18356;52.380;9.820;2023-02-01T04:37:03;25.17;;;3.90;;
31786;SDS011;18356;52.380;9.820;2023-02-01T04:39:29;21.70;;;4.17;;
31786;SDS011;18356;52.380;9.820;2023-02-01T04:41:55;20.53;;;3.80;;
31786;SDS011;18356;52.380;9.820;2023-02-01T04:44:21;18.30;;;3.90;;
31786;SDS011;18356;52.380;9.820;2023-02-01T04:46:47;26.03;;;4.10;;
31786;SDS011;18356;52.380;9.820;2023-02-01T04:49:13;20.30;;;3.57;;
31786;SDS011;18356;52.380;9.820;2023-02-01T04:51:40;26.20;;;4.73;;
31786;SDS011;18356;52.380;9.820;2023-02-01T04:54:06;23.50;;;4.37;;
31786;SDS011;18356;52.380;9.820;2023-02-01T04:56:33;27.63;;;4.30;;
31786;SDS011;18356;52.380;9.820;2023-02-01T04:59:02;22.03;;;4.03;;
31786;SDS011;18356;52.380;9.820;2023-02-01T05:01:28;26.80;;;4.53;;
31786;SDS011;18356;52.380;9.820;2023-02-01T05:03:55;23.17;;;4.67;;
31786;SDS011;18356;52.380;9.820;2023-02-01T05:06:21;24.30;;;4.70;;
31786;SDS011;18356;52.380;9.820;2023-02-01T05:08:47;22.30;;;4.00;;
31786;SDS011;18356;52.380;9.820;2023-02-01T05:11:13;19.67;;;3.90;;
31786;SDS011;18356;52.380;9.820;2023-02-01T05:13:58;26.20;;;4.53;;
31786;SDS011;18356;52.380;9.820;2023-02-01T05:16:24;22.83;;;4.40;;
31786;SDS011;18356;52.380;9.820;2023-02-01T05:18:50;20.03;;;3.83;;
31786;SDS011;18356;52.380;9.820;2023-02-01T05:21:16;25.10;;;4.40;;
31786;SDS011;18356;52.380;9.820;2023-02-01T05:23:42;28.93;;;4.90;;
31786;SDS011;18356;52.380;9.820;2023-02-01T05:26:27;28.37;;;4.43;;
31786;SDS011;18356;52.380;9.820;2023-02-01T05:28:53;25.50;;;4.10;;
31786;SDS011;18356;52.380;9.820;2023-02-01T05:31:19;26.47;;;4.53;;
31786;SDS011;18356;52.380;9.820;2023-02-01T05:33:45;23.77;;;4.17;;
31786;SDS011;18356;52.380;9.820;2023-02-01T05:36:11;32.70;;;4.73;;
31786;SDS011;18356;52.380;9.820;2023-02-01T05:38:37;23.40;;;4.10;;
31786;SDS011;18356;52.380;9.820;2023-02-01T05:41:03;22.20;;;3.80;;
31786;SDS011;18356;52.380;9.820;2023-02-01T05:43:29;27.90;;;4.10;;
31786;SDS011;18356;52.380;9.820;2023-02-01T05:45:55;23.83;;;4.10;;
31786;SDS011;18356;52.380;9.820;2023-02-01T05:48:21;25.83;;;4.10;;
31786;SDS011;18356;52.380;9.820;2023-02-01T05:50:47;25.80;;;4.73;;
31786;SDS011;18356;52.380;9.820;2023-02-01T05:53:13;35.87;;;5.30;;
31786;SDS011;18356;52.380;9.820;2023-02-01T05:55:39;21.43;;;3.93;;
31786;SDS011;18356;52.380;9.820;2023-02-01T05:58:05;26.17;;;4.17;;
31786;SDS011;18356;52.380;9.820;2023-02-01T06:00:31;24.07;;;4.13;;
31786;SDS011;18356;52.380;9.820;2023-02-01T06:02:57;34.17;;;4.90;;
31786;SDS011;18356;52.380;9.820;2023-02-01T06:05:23;23.63;;;4.33;;
31786;SDS011;18356;52.380;9.820;2023-02-01T06:07:49;27.77;;;4.90;;
31786;SDS011;18356;52.380;9.820;2023-02-01T06:10:18;25.77;;;4.33;;
31786;SDS011;18356;52.380;9.820;2023-02-01T06:12:45;19.40;;;4.23;;
31786;SDS011;18356;52.380;9.820;2023-02-01T06:15:12;25.47;;;3.90;;
31786;SDS011;18356;52.380;9.820;2023-02-01T06:17:38;21.33;;;4.83;;
31786;SDS011;18356;52.380;9.820;2023-02-01T06:20:06;19.17;;;3.37;;
31786;SDS011;18356;52.380;9.820;2023-02-01T06:22:33;21.80;;;4.27;;
31786;SDS011;18356;52.380;9.820;2023-02-01T06:25:01;26.43;;;4.73;;
31786;SDS011;18356;52.380;9.820;2023-02-01T06:27:27;17.13;;;3.40;;
31786;SDS011;18356;52.380;9.820;2023-02-01T06:29:53;22.23;;;3.80;;
31786;SDS011;18356;52.380;9.820;2023-02-01T06:32:20;19.70;;;3.80;;
31786;SDS011;18356;52.380;9.820;2023-02-01T06:34:46;25.30;;;4.23;;
31786;SDS011;18356;52.380;9.820;2023-02-01T06:37:12;25.93;;;4.00;;
31786;SDS011;18356;52.380;9.820;2023-02-01T06:39:38;20.20;;;4.00;;
31786;SDS011;18356;52.380;9.820;2023-02-01T06:42:05;23.60;;;4.10;;
31786;SDS011;18356;52.380;9.820;2023-02-01T06:44:31;18.63;;;3.43;;
31786;SDS011;18356;52.380;9.820;2023-02-01T06:46:57;16.70;;;3.23;;
31786;SDS011;18356;52.380;9.820;2023-02-01T06:49:23;13.20;;;2.77;;
31786;SDS011;18356;52.380;9.820;2023-02-01T06:51:49;19.70;;;3.40;;
31786;SDS011;18356;52.380;9.820;2023-02-01T06:54:16;11.70;;;3.33;;
31786;SDS011;18356;52.380;9.820;2023-02-01T06:56:42;14.03;;;2.80;;
31786;SDS011;18356;52.380;9.820;2023-02-01T06:59:08;18.40;;;3.57;;
31786;SDS011;18356;52.380;9.820;2023-02-01T07:01:34;11.97;;;3.17;;
31786;SDS011;18356;52.380;9.820;2023-02-01T07:04:00;19.13;;;3.47;;
31786;SDS011;18356;52.380;9.820;2023-02-01T07:06:26;15.70;;;3.53;;
31786;SDS011;18356;52.380;9.820;2023-02-01T07:08:52;16.13;;;3.33;;
31786;SDS011;18356;52.380;9.820;2023-02-01T07:11:20;15.10;;;2.47;;
31786;SDS011;18356;52.380;9.820;2023-02-01T07:13:47;23.67;;;3.50;;
31786;SDS011;18356;52.380;9.820;2023-02-01T07:16:14;18.83;;;3.37;;
31786;SDS011;18356;52.380;9.820;2023-02-01T07:18:41;13.40;;;3.40;;
31786;SDS011;18356;52.380;9.820;2023-02-01T07:21:07;15.67;;;3.07;;
31786;SDS011;18356;52.380;9.820;2023-02-01T07:23:33;15.90;;;3.40;;
31786;SDS011;18356;52.380;9.820;2023-02-01T07:26:00;20.90;;;4.57;;
31786;SDS011;18356;52.380;9.820;2023-02-01T07:28:28;29.30;;;4.97;;
31786;SDS011;18356;52.380;9.820;2023-02-01T07:30:55;19.20;;;4.07;;
31786;SDS011;18356;52.380;9.820;2023-02-01T07:33:22;17.37;;;3.93;;
31786;SDS011;18356;52.380;9.820;2023-02-01T07:35:48;20.63;;;3.80;;
31786;SDS011;18356;52.380;9.820;2023-02-01T07:38:15;20.30;;;4.27;;
31786;SDS011;18356;52.380;9.820;2023-02-01T07:40:41;22.10;;;3.93;;
31786;SDS011;18356;52.380;9.820;2023-02-01T07:43:07;20.53;;;3.93;;
31786;SDS011;18356;52.380;9.820;2023-02-01T07:45:36;25.07;;;4.07;;
31786;SDS011;18356;52.380;9.820;2023-02-01T07:48:02;22.17;;;4.40;;
31786;SDS011;18356;52.380;9.820;2023-02-01T07:50:29;19.70;;;3.67;;
31786;SDS011;18356;52.380;9.820;2023-02-01T07:52:56;29.37;;;3.70;;
31786;SDS011;18356;52.380;9.820;2023-02-01T07:55:23;27.47;;;3.90;;
31786;SDS011;18356;52.380;9.820;2023-02-01T07:57:49;23.57;;;4.13;;
31786;SDS011;18356;52.380;9.820;2023-02-01T08:00:16;24.87;;;3.77;;
31786;SDS011;18356;52.380;9.820;2023-02-01T08:03:00;25.17;;;3.77;;
31786;SDS011;18356;52.380;9.820;2023-02-01T08:05:26;24.80;;;3.67;;
31786;SDS011;18356;52.380;9.820;2023-02-01T08:07:52;21.80;;;3.80;;
31786;SDS011;18356;52.380;9.820;2023-02-01T08:10:19;21.30;;;3.93;;
31786;SDS011;18356;52.380;9.820;2023-02-01T08:12:45;20.70;;;3.93;;
31786;SDS011;18356;52.380;9.820;2023-02-01T08:15:16;27.53;;;5.03;;
31786;SDS011;18356;52.380;9.820;2023-02-01T08:17:49;22.53;;;3.53;;
31786;SDS011;18356;52.380;9.820;2023-02-01T08:20:16;26.40;;;3.80;;
31786;SDS011;18356;52.380;9.820;2023-02-01T08:22:42;21.93;;;3.53;;
31786;SDS011;18356;52.380;9.820;2023-02-01T08:25:08;19.87;;;3.57;;
31786;SDS011;18356;52.380;9.820;2023-02-01T08:27:35;23.07;;;4.33;;
31786;SDS011;18356;52.380;9.820;2023-02-01T08:30:01;23.30;;;4.53;;
31786;SDS011;18356;52.380;9.820;2023-02-01T08:32:27;28.60;;;5.83;;
31786;SDS011;18356;52.380;9.820;2023-02-01T08:34:53;23.57;;;5.10;;
31786;SDS011;18356;52.380;9.820;2023-02-01T08:37:19;22.07;;;4.10;;
31786;SDS011;18356;52.380;9.820;2023-02-01T08:39:45;16.20;;;4.10;;
31786;SDS011;18356;52.380;9.820;2023-02-01T08:42:12;24.40;;;3.90;;
31786;SDS011;18356;52.380;9.820;2023-02-01T08:44:57;23.33;;;4.43;;
31786;SDS011;18356;52.380;9.820;2023-02-01T08:47:23;25.40;;;4.77;;
31786;SDS011;18356;52.380;9.820;2023-02-01T08:49:49;21.13;;;4.20;;
31786;SDS011;18356;52.380;9.820;2023-02-01T08:52:16;22.60;;;3.87;;
31786;SDS011;18356;52.380;9.820;2023-02-01T08:54:42;21.20;;;3.53;;
31786;SDS011;18356;52.380;9.820;2023-02-01T08:57:08;23.57;;;4.30;;
31786;SDS011;18356;52.380;9.820;2023-02-01T08:59:34;19.67;;;3.97;;
31786;SDS011;18356;52.380;9.820;2023-02-01T09:02:00;25.77;;;3.80;;
31786;SDS011;18356;52.380;9.820;2023-02-01T09:04:26;22.93;;;4.50;;
31786;SDS011;18356;52.380;9.820;2023-02-01T09:06:52;18.47;;;4.20;;
31786;SDS011;18356;52.380;9.820;2023-02-01T09:09:20;21.27;;;4.13;;
31786;SDS011;18356;52.380;9.820;2023-02-01T09:11:46;21.37;;;3.43;;
31786;SDS011;18356;52.380;9.820;2023-02-01T09:14:12;21.67;;;3.60;;
31786;SDS011;18356;52.380;9.820;2023-02-01T09:16:38;17.53;;;4.13;;
31786;SDS011;18356;52.380;9.820;2023-02-01T09:19:04;18.13;;;3.80;;
31786;SDS011;18356;52.380;9.820;2023-02-01T09:21:30;23.33;;;4.60;;
31786;SDS011;18356;52.380;9.820;2023-02-01T09:23:57;16.30;;;3.00;;
31786;SDS011;18356;52.380;9.820;2023-02-01T09:26:23;20.73;;;3.40;;
31786;SDS011;18356;52.380;9.820;2023-02-01T09:28:50;21.23;;;3.27;;
31786;SDS011;18356;52.380;9.820;2023-02-01T09:31:16;14.83;;;3.27;;
31786;SDS011;18356;52.380;9.820;2023-02-01T09:33:42;18.40;;;3.40;;
31786;SDS011;18356;52.380;9.820;2023-02-01T09:36:08;15.67;;;3.00;;
31786;SDS011;18356;52.380;9.820;2023-02-01T09:38:34;26.53;;;4.60;;
31786;SDS011;18356;52.380;9.820;2023-02-01T09:41:00;19.10;;;4.20;;
31786;SDS011;18356;52.380;9.820;2023-02-01T09:48:45;18.20;;;3.33;;
31786;SDS011;18356;52.380;9.820;2023-02-01T09:51:14;22.67;;;4.13;;
31786;SDS011;18356;52.380;9.820;2023-02-01T09:53:42;25.30;;;4.27;;
31786;SDS011;18356;52.380;9.820;2023-02-01T09:56:12;21.17;;;3.77;;
31786;SDS011;18356;52.380;9.820;2023-02-01T09:58:44;18.13;;;3.93;;
31786;SDS011;18356;52.380;9.820;2023-02-01T10:01:23;21.30;;;3.97;;
31786;SDS011;18356;52.380;9.820;2023-02-01T10:03:50;22.67;;;4.17;;
31786;SDS011;18356;52.380;9.820;2023-02-01T10:22:05;21.67;;;3.90;;
31786;SDS011;18356;52.380;9.820;2023-02-01T10:29:36;18.83;;;3.50;;
31786;SDS011;18356;52.380;9.820;2023-02-01T10:32:03;21.70;;;4.20;;
31786;SDS011;18356;52.380;9.820;2023-02-01T10:34:34;22.90;;;3.97;;
31786;SDS011;18356;52.380;9.820;2023-02-01T10:37:01;20.57;;;3.83;;
31786;SDS011;18356;52.380;9.820;2023-02-01T10:39:27;22.03;;;4.03;;
31786;SDS011;18356;52.380;9.820;2023-02-01T10:41:54;19.83;;;3.83;;
31786;SDS011;18356;52.380;9.820;2023-02-01T10:44:30;26.47;;;4.43;;
31786;SDS011;18356;52.380;9.820;2023-02-01T10:46:57;21.77;;;4.73;;
31786;SDS011;18356;52.380;9.820;2023-02-01T10:49:29;16.90;;;3.90;;
31786;SDS011;18356;52.380;9.820;2023-02-01T10:52:06;22.07;;;4.30;;
31786;SDS011;18356;52.380;9.820;2023-02-01T10:54:38;22.83;;;4.60;;
31786;SDS011;18356;52.380;9.820;2023-02-01T10:57:25;24.33;;;3.97;;
31786;SDS011;18356;52.380;9.820;2023-02-01T10:59:51;21.10;;;3.90;;
31786;SDS011;18356;52.380;9.820;2023-02-01T11:02:24;19.73;;;3.63;;
31786;SDS011;18356;52.380;9.820;2023-02-01T11:04:58;22.90;;;4.07;;
31786;SDS011;18356;52.380;9.820;2023-02-01T11:07:24;20.60;;;4.20;;
31786;SDS011;18356;52.380;9.820;2023-02-01T11:09:52;20.13;;;3.47;;
31786;SDS011;18356;52.380;9.820;2023-02-01T11:14:48;20.37;;;5.00;;
31786;SDS011;18356;52.380;9.820;2023-02-01T11:19:46;21.47;;;4.20;;
31786;SDS011;18356;52.380;9.820;2023-02-01T11:22:13;18.73;;;4.13;;
31786;SDS011;18356;52.380;9.820;2023-02-01T11:24:39;12.97;;;3.40;;
31786;SDS011;18356;52.380;9.820;2023-02-01T11:27:12;22.93;;;3.97;;
31786;SDS011;18356;52.380;9.820;2023-02-01T11:29:40;25.10;;;4.20;;
31786;SDS011;18356;52.380;9.820;2023-02-01T11:32:08;16.77;;;4.07;;
31786;SDS011;18356;52.380;9.820;2023-02-01T11:34:36;19.27;;;3.93;;
31786;SDS011;18356;52.380;9.820;2023-02-01T11:37:03;15.23;;;3.30;;
31786;SDS011;18356;52.380;9.820;2023-02-01T11:39:30;19.77;;;3.73;;
31786;SDS011;18356;52.380;9.820;2023-02-01T11:44:31;19.90;;;3.20;;
31786;SDS011;18356;52.380;9.820;2023-02-01T11:49:42;20.80;;;3.37;;
31786;SDS011;18356;52.380;9.820;2023-02-01T12:00:26;21.53;;;3.47;;
31786;SDS011;18356;52.380;9.820;2023-02-01T12:03:18;16.87;;;3.40;;
31786;SDS011;18356;52.380;9.820;2023-02-01T12:05:59;15.43;;;3.50;;
31786;SDS011;18356;52.380;9.820;2023-02-01T12:08:51;18.90;;;2.90;;
31786;SDS011;18356;52.380;9.820;2023-02-01T12:16:35;17.13;;;3.27;;
31786;SDS011;18356;52.380;9.820;2023-02-01T12:24:39;16.93;;;3.93;;
31786;SDS011;18356;52.380;9.820;2023-02-01T12:26:50;16.50;;;3.10;;
31786;SDS011;18356;52.380;9.820;2023-02-01T12:32:09;18.50;;;3.87;;
31786;SDS011;18356;52.380;9.820;2023-02-01T12:37:30;17.13;;;3.20;;
31786;SDS011;18356;52.380;9.820;2023-02-01T12:40:06;17.90;;;4.50;;
31786;SDS011;18356;52.380;9.820;2023-02-01T12:42:42;19.87;;;4.03;;
31786;SDS011;18356;52.380;9.820;2023-02-01T12:45:26;13.97;;;4.17;;
31786;SDS011;18356;52.380;9.820;2023-02-01T12:47:54;18.13;;;3.20;;
31786;SDS011;18356;52.380;9.820;2023-02-01T12:52:53;14.90;;;3.23;;
31786;SDS011;18356;52.380;9.820;2023-02-01T12:58:04;13.97;;;3.03;;
31786;SDS011;18356;52.380;9.820;2023-02-01T13:00:40;15.17;;;3.37;;
31786;SDS011;18356;52.380;9.820;2023-02-01T13:05:59;12.83;;;3.30;;
31786;SDS011;18356;52.380;9.820;2023-02-01T13:08:36;13.97;;;3.27;;
31786;SDS011;18356;52.380;9.820;2023-02-01T13:11:07;14.73;;;3.30;;
31786;SDS011;18356;52.380;9.820;2023-02-01T13:16:52;13.87;;;3.80;;
31786;SDS011;18356;52.380;9.820;2023-02-01T13:19:19;8.13;;;2.27;;
31786;SDS011;18356;52.380;9.820;2023-02-01T13:21:51;11.37;;;2.77;;
31786;SDS011;18356;52.380;9.820;2023-02-01T13:26:53;10.00;;;2.00;;
31786;SDS011;18356;52.380;9.820;2023-02-01T13:29:24;17.47;;;2.50;;
31786;SDS011;18356;52.380;9.820;2023-02-01T13:43:02;4.30;;;1.37;;
31786;SDS011;18356;52.380;9.820;2023-02-01T13:45:31;5.20;;;0.70;;
31786;SDS011;18356;52.380;9.820;2023-02-01T13:48:00;2.17;;;0.60;;
31786;SDS011;18356;52.380;9.820;2023-02-01T13:50:29;3.63;;;1.10;;
31786;SDS011;18356;52.380;9.820;2023-02-01T13:52:57;2.10;;;0.70;;
31786;SDS011;18356;52.380;9.820;2023-02-01T13:55:33;3.47;;;1.40;;
31786;SDS011;18356;52.380;9.820;2023-02-01T14:15:39;3.13;;;1.00;;
31786;SDS011;18356;52.380;9.820;2023-02-01T14:18:48;4.77;;;1.30;;
31786;SDS011;18356;52.380;9.820;2023-02-01T14:21:20;4.63;;;1.90;;
31786;SDS011;18356;52.380;9.820;2023-02-01T14:23:54;3.53;;;1.23;;
31786;SDS011;18356;52.380;9.820;2023-02-01T14:26:23;6.20;;;1.00;;
31786;SDS011;18356;52.380;9.820;2023-02-01T14:28:55;3.30;;;1.60;;
31786;SDS011;18356;52.380;9.820;2023-02-01T14:34:02;2.90;;;0.30;;
31786;SDS011;18356;52.380;9.820;2023-02-01T14:36:38;2.80;;;0.83;;
31786;SDS011;18356;52.380;9.820;2023-02-01T14:39:17;1.70;;;0.60;;
31786;SDS011;18356;52.380;9.820;2023-02-01T14:41:44;2.87;;;0.87;;
31786;SDS011;18356;52.380;9.820;2023-02-01T14:49:23;4.47;;;1.17;;
31786;SDS011;18356;52.380;9.820;2023-02-01T14:51:50;2.30;;;0.97;;
31786;SDS011;18356;52.380;9.820;2023-02-01T14:54:17;7.20;;;1.80;;
31786;SDS011;18356;52.380;9.820;2023-02-01T14:56:45;5.00;;;0.70;;
31786;SDS011;18356;52.380;9.820;2023-02-01T14:59:13;2.93;;;0.60;;
31786;SDS011;18356;52.380;9.820;2023-02-01T15:01:47;5.80;;;2.03;;
31786;SDS011;18356;52.380;9.820;2023-02-01T15:04:16;8.00;;;1.80;;
31786;SDS011;18356;52.380;9.820;2023-02-01T15:06:49;7.63;;;1.67;;
31786;SDS011;18356;52.380;9.820;2023-02-01T15:09:30;9.07;;;1.17;;
31786;SDS011;18356;52.380;9.820;2023-02-01T15:14:22;8.20;;;1.70;;
31786;SDS011;18356;52.380;9.820;2023-02-01T15:16:49;5.77;;;1.60;;
31786;SDS011;18356;52.380;9.820;2023-02-01T15:19:22;8.10;;;2.27;;
31786;SDS011;18356;52.380;9.820;2023-02-01T15:21:49;9.30;;;1.80;;
31786;SDS011;18356;52.380;9.820;2023-02-01T15:24:20;8.17;;;1.80;;
31786;SDS011;18356;52.380;9.820;2023-02-01T15:26:47;11.30;;;2.60;;
31786;SDS011;18356;52.380;9.820;2023-02-01T15:29:13;6.03;;;1.47;;
31786;SDS011;18356;52.380;9.820;2023-02-01T15:31:42;16.00;;;1.90;;
31786;SDS011;18356;52.380;9.820;2023-02-01T15:34:09;9.43;;;2.37;;
31786;SDS011;18356;52.380;9.820;2023-02-01T15:36:36;7.33;;;2.33;;
31786;SDS011;18356;52.380;9.820;2023-02-01T15:42:12;10.90;;;1.97;;
31786;SDS011;18356;52.380;9.820;2023-02-01T15:44:43;9.40;;;2.40;;
31786;SDS011;18356;52.380;9.820;2023-02-01T15:49:40;7.37;;;1.80;;
31786;SDS011;18356;52.380;9.820;2023-02-01T15:52:20;8.53;;;1.57;;
31786;SDS011;18356;52.380;9.820;2023-02-01T15:54:55;8.73;;;1.90;;
31786;SDS011;18356;52.380;9.820;2023-02-01T15:57:35;9.87;;;1.70;;
31786;SDS011;18356;52.380;9.820;2023-02-01T16:00:06;6.63;;;1.40;;
31786;SDS011;18356;52.380;9.820;2023-02-01T16:02:34;7.63;;;2.17;;
31786;SDS011;18356;52.380;9.820;2023-02-01T16:05:03;10.77;;;1.83;;
31786;SDS011;18356;52.380;9.820;2023-02-01T16:07:31;11.27;;;2.03;;
31786;SDS011;18356;52.380;9.820;2023-02-01T16:09:58;9.47;;;1.63;;
31786;SDS011;18356;52.380;9.820;2023-02-01T16:14:53;17.57;;;2.27;;
31786;SDS011;18356;52.380;9.820;2023-02-01T16:17:19;8.53;;;1.60;;
31786;SDS011;18356;52.380;9.820;2023-02-01T16:19:45;8.77;;;2.43;;
31786;SDS011;18356;52.380;9.820;2023-02-01T16:22:12;13.03;;;2.70;;
31786;SDS011;18356;52.380;9.820;2023-02-01T16:24:38;11.00;;;2.33;;
31786;SDS011;18356;52.380;9.820;2023-02-01T16:27:05;13.83;;;2.33;;
31786;SDS011;18356;52.380;9.820;2023-02-01T16:29:32;11.73;;;2.40;;
31786;SDS011;18356;52.380;9.820;2023-02-01T16:31:58;16.03;;;3.60;;
31786;SDS011;18356;52.380;9.820;2023-02-01T16:34:25;17.03;;;3.43;;
31786;SDS011;18356;52.380;9.820;2023-02-01T16:36:52;13.83;;;2.50;;
31786;SDS011;18356;52.380;9.820;2023-02-01T16:39:22;14.93;;;3.43;;
31786;SDS011;18356;52.380;9.820;2023-02-01T16:41:50;13.07;;;3.10;;
31786;SDS011;18356;52.380;9.820;2023-02-01T16:44:16;15.17;;;2.97;;
31786;SDS011;18356;52.380;9.820;2023-02-01T16:46:43;16.97;;;2.80;;
31786;SDS011;18356;52.380;9.820;2023-02-01T16:49:21;8.83;;;2.03;;
31786;SDS011;18356;52.380;9.820;2023-02-01T16:51:51;17.97;;;4.03;;
31786;SDS011;18356;52.380;9.820;2023-02-01T16:54:21;16.50;;;3.80;;
31786;SDS011;18356;52.380;9.820;2023-02-01T16:56:47;15.10;;;2.20;;
31786;SDS011;18356;52.380;9.820;2023-02-01T16:59:14;16.33;;;2.50;;
31786;SDS011;18356;52.380;9.820;2023-02-01T17:01:41;12.40;;;2.20;;
31786;SDS011;18356;52.380;9.820;2023-02-01T17:04:08;16.20;;;2.30;;
31786;SDS011;18356;52.380;9.820;2023-02-01T17:06:34;16.20;;;2.83;;
31786;SDS011;18356;52.380;9.820;2023-02-01T17:09:02;15.37;;;2.87;;
31786;SDS011;18356;52.380;9.820;2023-02-01T17:11:29;15.63;;;2.57;;
31786;SDS011;18356;52.380;9.820;2023-02-01T17:16:54;19.07;;;3.73;;